sensor_id;sensor_type;location;lat;lon;timestamp;pressure;altitude;pressure_sealevel;temperature;humidity
85758;BME280;76202;52.626;4.746;2024-02-21T00:00:03;101955.63;;;18.53;61.71
85758;BME280;76202;52.626;4.746;2024-02-21T00:02:29;101961.88;;;18.53;61.53
85758;BME280;76202;52.626;4.746;2024-02-21T00:04:54;101966.66;;;18.51;61.82
85758;BME280;76202;52.626;4.746;2024-02-21T00:07:20;101960.41;;;18.51;61.44
85758;BME280;76202;52.626;4.746;2024-02-21T00:09:45;101953.47;;;18.48;61.92
85758;BME280;76202;52.626;4.746;2024-02-21T00:12:11;101953.47;;;18.48;61.55
85758;BME280;76202;52.626;4.746;2024-02-21T00:14:38;101945.59;;;18.47;61.29
85758;BME280;76202;52.626;4.746;2024-02-21T00:17:03;101952.03;;;18.46;61.88
85758;BME280;76202;52.626;4.746;2024-02-21T00:19:29;101949.56;;;18.44;61.39
85758;BME280;76202;52.626;4.746;2024-02-21T00:21:54;101949.56;;;18.44;61.58
85758;BME280;76202;52.626;4.746;2024-02-21T00:24:19;101954.34;;;18.42;61.46
85758;BME280;76202;52.626;4.746;2024-02-21T00:26:45;101949.13;;;18.40;61.94
85758;BME280;76202;52.626;4.746;2024-02-21T00:29:10;101942.03;;;18.39;61.16
85758;BME280;76202;52.626;4.746;2024-02-21T00:31:35;101927.03;;;18.37;61.56
85758;BME280;76202;52.626;4.746;2024-02-21T00:34:01;101932.69;;;18.35;61.64
85758;BME280;76202;52.626;4.746;2024-02-21T00:36:26;101938.09;;;18.35;61.67
85758;BME280;76202;52.626;4.746;2024-02-21T00:38:52;101927.69;;;18.32;61.68
85758;BME280;76202;52.626;4.746;2024-02-21T00:41:17;101924.16;;;18.32;61.73
85758;BME280;76202;52.626;4.746;2024-02-21T00:43:42;101916.00;;;18.32;61.88
85758;BME280;76202;52.626;4.746;2024-02-21T00:46:08;101923.53;;;18.30;61.61
85758;BME280;76202;52.626;4.746;2024-02-21T00:48:33;101923.72;;;18.28;61.51
85758;BME280;76202;52.626;4.746;2024-02-21T00:50:59;101921.00;;;18.28;61.91
85758;BME280;76202;52.626;4.746;2024-02-21T00:53:24;101924.78;;;18.27;61.94
85758;BME280;76202;52.626;4.746;2024-02-21T00:55:50;101913.31;;;18.25;61.54
85758;BME280;76202;52.626;4.746;2024-02-21T00:58:15;101916.25;;;18.24;62.07
85758;BME280;76202;52.626;4.746;2024-02-21T01:00:40;101911.84;;;18.23;61.78
85758;BME280;76202;52.626;4.746;2024-02-21T01:03:06;101913.72;;;18.22;61.59
85758;BME280;76202;52.626;4.746;2024-02-21T01:05:31;101912.88;;;18.22;61.70
85758;BME280;76202;52.626;4.746;2024-02-21T01:07:56;101906.88;;;18.20;61.62
85758;BME280;76202;52.626;4.746;2024-02-21T01:10:22;101916.00;;;18.19;61.63
85758;BME280;76202;52.626;4.746;2024-02-21T01:12:48;101904.38;;;18.18;61.69
85758;BME280;76202;52.626;4.746;2024-02-21T01:15:13;101905.41;;;18.17;61.78
85758;BME280;76202;52.626;4.746;2024-02-21T01:17:38;101892.91;;;18.16;61.92
85758;BME280;76202;52.626;4.746;2024-02-21T01:20:06;101895.00;;;18.14;61.90
85758;BME280;76202;52.626;4.746;2024-02-21T01:22:32;101897.91;;;18.13;61.79
85758;BME280;76202;52.626;4.746;2024-02-21T01:24:57;101890.63;;;18.13;61.56
85758;BME280;76202;52.626;4.746;2024-02-21T01:27:22;101888.13;;;18.12;61.72
85758;BME280;76202;52.626;4.746;2024-02-21T01:29:48;101890.19;;;18.10;62.14
85758;BME280;76202;52.626;4.746;2024-02-21T01:32:15;101887.72;;;18.08;61.22
85758;BME280;76202;52.626;4.746;2024-02-21T01:34:40;101883.31;;;18.07;61.86
85758;BME280;76202;52.626;4.746;2024-02-21T01:37:06;101890.66;;;18.07;61.90
85758;BME280;76202;52.626;4.746;2024-02-21T01:39:33;101872.50;;;18.07;61.83
85758;BME280;76202;52.626;4.746;2024-02-21T01:41:58;101876.47;;;18.05;62.32
85758;BME280;76202;52.626;4.746;2024-02-21T01:44:24;101872.91;;;18.04;61.84
85758;BME280;76202;52.626;4.746;2024-02-21T01:46:49;101867.72;;;18.03;61.84
85758;BME280;76202;52.626;4.746;2024-02-21T01:49:16;101880.66;;;18.01;61.83
85758;BME280;76202;52.626;4.746;2024-02-21T01:51:42;101873.34;;;18.01;61.69
85758;BME280;76202;52.626;4.746;2024-02-21T01:54:08;101876.47;;;17.98;61.75
85758;BME280;76202;52.626;4.746;2024-02-21T01:56:34;101874.59;;;17.99;61.63
85758;BME280;76202;52.626;4.746;2024-02-21T01:59:00;101869.19;;;17.99;62.05
85758;BME280;76202;52.626;4.746;2024-02-21T02:01:26;101868.56;;;17.97;61.85
85758;BME280;76202;52.626;4.746;2024-02-21T02:03:51;101866.06;;;17.95;61.51
85758;BME280;76202;52.626;4.746;2024-02-21T02:06:18;101866.28;;;17.94;61.76
85758;BME280;76202;52.626;4.746;2024-02-21T02:08:44;101854.59;;;17.93;61.50
85758;BME280;76202;52.626;4.746;2024-02-21T02:11:10;101864.00;;;17.91;61.97
85758;BME280;76202;52.626;4.746;2024-02-21T02:13:35;101855.88;;;17.91;61.70
85758;BME280;76202;52.626;4.746;2024-02-21T02:16:00;101850.44;;;17.91;61.64
85758;BME280;76202;52.626;4.746;2024-02-21T02:18:26;101849.84;;;17.89;61.64
85758;BME280;76202;52.626;4.746;2024-02-21T02:20:51;101849.19;;;17.87;61.62
85758;BME280;76202;52.626;4.746;2024-02-21T02:23:31;101852.97;;;17.86;61.95
85758;BME280;76202;52.626;4.746;2024-02-21T02:25:57;101842.31;;;17.84;61.56
85758;BME280;76202;52.626;4.746;2024-02-21T02:28:23;101846.91;;;17.83;61.43
85758;BME280;76202;52.626;4.746;2024-02-21T02:30:49;101834.44;;;17.82;62.01
85758;BME280;76202;52.626;4.746;2024-02-21T02:33:15;101809.44;;;17.80;61.66
85758;BME280;76202;52.626;4.746;2024-02-21T02:35:42;101820.25;;;17.80;61.32
85758;BME280;76202;52.626;4.746;2024-02-21T02:38:07;101824.44;;;17.76;62.06
85758;BME280;76202;52.626;4.746;2024-02-21T02:40:34;101817.16;;;17.77;61.87
85758;BME280;76202;52.626;4.746;2024-02-21T02:43:00;101813.41;;;17.78;61.67
85758;BME280;76202;52.626;4.746;2024-02-21T02:45:25;101810.06;;;17.76;61.80
85758;BME280;76202;52.626;4.746;2024-02-21T02:47:54;101807.56;;;17.74;61.90
85758;BME280;76202;52.626;4.746;2024-02-21T02:50:20;101801.34;;;17.74;61.72
85758;BME280;76202;52.626;4.746;2024-02-21T02:52:45;101801.53;;;17.72;62.40
85758;BME280;76202;52.626;4.746;2024-02-21T02:55:11;101798.84;;;17.72;61.58
85758;BME280;76202;52.626;4.746;2024-02-21T02:57:36;101797.38;;;17.70;61.47
85758;BME280;76202;52.626;4.746;2024-02-21T03:00:02;101801.75;;;17.71;61.63
85758;BME280;76202;52.626;4.746;2024-02-21T03:02:28;101788.00;;;17.66;61.81
85758;BME280;76202;52.626;4.746;2024-02-21T03:04:53;101791.34;;;17.68;62.26
85758;BME280;76202;52.626;4.746;2024-02-21T03:07:19;101778.25;;;17.65;61.36
85758;BME280;76202;52.626;4.746;2024-02-21T03:09:45;101771.16;;;17.64;61.85
85758;BME280;76202;52.626;4.746;2024-02-21T03:12:10;101767.63;;;17.63;62.30
85758;BME280;76202;52.626;4.746;2024-02-21T03:14:36;101765.97;;;17.62;61.51
85758;BME280;76202;52.626;4.746;2024-02-21T03:17:02;101756.19;;;17.61;62.02
85758;BME280;76202;52.626;4.746;2024-02-21T03:19:28;101748.06;;;17.61;61.78
85758;BME280;76202;52.626;4.746;2024-02-21T03:21:53;101739.34;;;17.59;61.56
85758;BME280;76202;52.626;4.746;2024-02-21T03:24:19;101737.66;;;17.58;61.38
85758;BME280;76202;52.626;4.746;2024-02-21T03:26:45;101736.00;;;17.57;62.08
85758;BME280;76202;52.626;4.746;2024-02-21T03:29:14;101743.28;;;17.57;61.58
85758;BME280;76202;52.626;4.746;2024-02-21T03:31:40;101737.06;;;17.56;61.84
85758;BME280;76202;52.626;4.746;2024-02-21T03:34:05;101729.34;;;17.53;61.90
85758;BME280;76202;52.626;4.746;2024-02-21T03:36:31;101731.19;;;17.53;61.53
85758;BME280;76202;52.626;4.746;2024-02-21T03:38:56;101731.00;;;17.54;61.98
85758;BME280;76202;52.626;4.746;2024-02-21T03:41:21;101738.66;;;17.51;61.89
85758;BME280;76202;52.626;4.746;2024-02-21T03:43:47;101725.97;;;17.51;62.26
85758;BME280;76202;52.626;4.746;2024-02-21T03:46:13;101724.53;;;17.49;62.16
85758;BME280;76202;52.626;4.746;2024-02-21T03:48:38;101719.97;;;17.49;61.90
85758;BME280;76202;52.626;4.746;2024-02-21T03:51:04;101721.22;;;17.47;62.26
85758;BME280;76202;52.626;4.746;2024-02-21T03:53:29;101726.63;;;17.47;61.80
85758;BME280;76202;52.626;4.746;2024-02-21T03:55:55;101723.09;;;17.46;62.13
85758;BME280;76202;52.626;4.746;2024-02-21T03:58:21;101721.41;;;17.45;61.76
85758;BME280;76202;52.626;4.746;2024-02-21T04:00:46;101711.66;;;17.44;62.10
85758;BME280;76202;52.626;4.746;2024-02-21T04:03:12;101714.56;;;17.43;61.90
85758;BME280;76202;52.626;4.746;2024-02-21T04:05:37;101719.97;;;17.43;61.92
85758;BME280;76202;52.626;4.746;2024-02-21T04:08:04;101726.44;;;17.42;62.04
85758;BME280;76202;52.626;4.746;2024-02-21T04:10:30;101718.31;;;17.42;61.98
85758;BME280;76202;52.626;4.746;2024-02-21T04:12:55;101729.31;;;17.40;61.94
85758;BME280;76202;52.626;4.746;2024-02-21T04:15:21;101713.31;;;17.39;61.94
85758;BME280;76202;52.626;4.746;2024-02-21T04:17:46;101722.47;;;17.38;61.98
85758;BME280;76202;52.626;4.746;2024-02-21T04:20:16;101726.00;;;17.38;62.23
85758;BME280;76202;52.626;4.746;2024-02-21T04:22:45;101712.50;;;17.38;62.04
85758;BME280;76202;52.626;4.746;2024-02-21T04:25:11;101704.78;;;17.35;61.69
85758;BME280;76202;52.626;4.746;2024-02-21T04:27:40;101709.38;;;17.35;61.63
85758;BME280;76202;52.626;4.746;2024-02-21T04:30:06;101712.91;;;17.35;61.89
85758;BME280;76202;52.626;4.746;2024-02-21T04:32:32;101702.09;;;17.35;62.37
85758;BME280;76202;52.626;4.746;2024-02-21T04:34:57;101698.75;;;17.33;61.86
85758;BME280;76202;52.626;4.746;2024-02-21T04:37:22;101700.63;;;17.33;61.83
85758;BME280;76202;52.626;4.746;2024-02-21T04:39:48;101691.69;;;17.32;61.80
85758;BME280;76202;52.626;4.746;2024-02-21T04:42:14;101688.34;;;17.30;61.95
85758;BME280;76202;52.626;4.746;2024-02-21T04:44:40;101683.78;;;17.30;61.95
85758;BME280;76202;52.626;4.746;2024-02-21T04:47:05;101685.88;;;17.28;61.95
85758;BME280;76202;52.626;4.746;2024-02-21T04:49:31;101683.16;;;17.28;62.19
85758;BME280;76202;52.626;4.746;2024-02-21T04:51:57;101683.38;;;17.27;61.89
85758;BME280;76202;52.626;4.746;2024-02-21T04:54:22;101686.09;;;17.27;62.05
85758;BME280;76202;52.626;4.746;2024-02-21T04:56:47;101669.03;;;17.26;62.20
85758;BME280;76202;52.626;4.746;2024-02-21T04:59:13;101665.50;;;17.26;62.13
85758;BME280;76202;52.626;4.746;2024-02-21T05:01:38;101663.81;;;17.25;62.24
85758;BME280;76202;52.626;4.746;2024-02-21T05:04:03;101658.41;;;17.25;62.00
85758;BME280;76202;52.626;4.746;2024-02-21T05:06:29;101648.66;;;17.24;61.98
85758;BME280;76202;52.626;4.746;2024-02-21T05:08:55;101652.38;;;17.23;61.63
85758;BME280;76202;52.626;4.746;2024-02-21T05:11:21;101644.47;;;17.21;61.85
85758;BME280;76202;52.626;4.746;2024-02-21T05:13:46;101649.88;;;17.21;62.17
85758;BME280;76202;52.626;4.746;2024-02-21T05:16:12;101639.91;;;17.22;62.07
85758;BME280;76202;52.626;4.746;2024-02-21T05:18:37;101634.72;;;17.20;61.65
85758;BME280;76202;52.626;4.746;2024-02-21T05:21:03;101638.44;;;17.19;62.19
85758;BME280;76202;52.626;4.746;2024-02-21T05:23:28;101628.06;;;17.16;61.83
85758;BME280;76202;52.626;4.746;2024-02-21T05:25:54;101617.25;;;17.16;62.18
85758;BME280;76202;52.626;4.746;2024-02-21T05:28:19;101613.69;;;17.16;62.31
85758;BME280;76202;52.626;4.746;2024-02-21T05:30:45;101611.00;;;17.16;61.94
85758;BME280;76202;52.626;4.746;2024-02-21T05:33:10;101597.72;;;17.14;62.03
85758;BME280;76202;52.626;4.746;2024-02-21T05:35:35;101586.06;;;17.14;61.98
85758;BME280;76202;52.626;4.746;2024-02-21T05:38:01;101587.94;;;17.13;61.83
85758;BME280;76202;52.626;4.746;2024-02-21T05:40:29;101583.34;;;17.14;61.57
85758;BME280;76202;52.626;4.746;2024-02-21T05:42:55;101576.28;;;17.13;62.07
85758;BME280;76202;52.626;4.746;2024-02-21T05:45:20;101580.03;;;17.12;62.39
85758;BME280;76202;52.626;4.746;2024-02-21T05:47:46;101572.97;;;17.11;62.31
85758;BME280;76202;52.626;4.746;2024-02-21T05:50:11;101568.59;;;17.10;62.21
85758;BME280;76202;52.626;4.746;2024-02-21T05:52:36;101571.28;;;17.10;61.87
85758;BME280;76202;52.626;4.746;2024-02-21T05:55:02;101571.28;;;17.10;62.04
85758;BME280;76202;52.626;4.746;2024-02-21T05:57:28;101569.66;;;17.09;62.56
85758;BME280;76202;52.626;4.746;2024-02-21T05:59:53;101570.91;;;17.06;62.05
85758;BME280;76202;52.626;4.746;2024-02-21T06:02:19;101566.53;;;17.05;62.56
85758;BME280;76202;52.626;4.746;2024-02-21T06:04:45;101567.56;;;17.04;61.97
85758;BME280;76202;52.626;4.746;2024-02-21T06:07:11;101575.47;;;17.06;62.29
85758;BME280;76202;52.626;4.746;2024-02-21T06:09:37;101569.44;;;17.04;61.95
85758;BME280;76202;52.626;4.746;2024-02-21T06:12:02;101561.56;;;17.02;61.78
85758;BME280;76202;52.626;4.746;2024-02-21T06:14:28;101572.78;;;17.06;61.84
85758;BME280;76202;52.626;4.746;2024-02-21T06:16:53;101569.00;;;17.13;61.93
85758;BME280;76202;52.626;4.746;2024-02-21T06:19:18;101575.00;;;17.22;61.82
85758;BME280;76202;52.626;4.746;2024-02-21T06:21:44;101575.84;;;17.36;61.45
85758;BME280;76202;52.626;4.746;2024-02-21T06:24:09;101580.56;;;17.53;60.78
85758;BME280;76202;52.626;4.746;2024-02-21T06:26:34;101573.22;;;17.73;60.08
85758;BME280;76202;52.626;4.746;2024-02-21T06:29:00;101580.41;;;17.93;59.97
85758;BME280;76202;52.626;4.746;2024-02-21T06:31:27;101580.94;;;18.14;59.94
85758;BME280;76202;52.626;4.746;2024-02-21T06:33:52;101578.47;;;18.37;59.41
85758;BME280;76202;52.626;4.746;2024-02-21T06:36:18;101581.91;;;18.58;58.38
85758;BME280;76202;52.626;4.746;2024-02-21T06:38:43;101564.88;;;18.75;58.14
85758;BME280;76202;52.626;4.746;2024-02-21T06:41:16;101571.13;;;19.01;56.91
85758;BME280;76202;52.626;4.746;2024-02-21T06:43:41;101570.31;;;19.18;57.00
85758;BME280;76202;52.626;4.746;2024-02-21T06:46:07;101567.19;;;19.39;56.79
85758;BME280;76202;52.626;4.746;2024-02-21T06:48:32;101561.91;;;19.63;56.51
85758;BME280;76202;52.626;4.746;2024-02-21T06:50:57;101554.13;;;20.67;54.22
85758;BME280;76202;52.626;4.746;2024-02-21T06:53:23;101555.78;;;21.03;52.69
85758;BME280;76202;52.626;4.746;2024-02-21T06:55:48;101559.69;;;21.42;52.14
85758;BME280;76202;52.626;4.746;2024-02-21T06:58:14;101559.19;;;21.45;51.74
85758;BME280;76202;52.626;4.746;2024-02-21T07:00:42;101546.31;;;21.52;51.50
85758;BME280;76202;52.626;4.746;2024-02-21T07:03:07;101539.41;;;21.61;51.88
85758;BME280;76202;52.626;4.746;2024-02-21T07:05:33;101537.41;;;21.56;52.01
85758;BME280;76202;52.626;4.746;2024-02-21T07:07:58;101543.25;;;21.37;52.51
85758;BME280;76202;52.626;4.746;2024-02-21T07:10:23;101536.72;;;21.38;52.78
85758;BME280;76202;52.626;4.746;2024-02-21T07:12:49;101527.94;;;21.47;52.21
85758;BME280;76202;52.626;4.746;2024-02-21T07:15:14;101527.72;;;21.49;52.36
85758;BME280;76202;52.626;4.746;2024-02-21T07:17:40;101523.66;;;21.63;52.26
85758;BME280;76202;52.626;4.746;2024-02-21T07:20:06;101519.16;;;21.57;52.57
85758;BME280;76202;52.626;4.746;2024-02-21T07:22:31;101513.25;;;21.60;52.08
85758;BME280;76202;52.626;4.746;2024-02-21T07:24:57;101511.53;;;21.42;53.08
85758;BME280;76202;52.626;4.746;2024-02-21T07:27:22;101503.22;;;21.49;52.89
85758;BME280;76202;52.626;4.746;2024-02-21T07:29:47;101495.41;;;21.41;53.05
85758;BME280;76202;52.626;4.746;2024-02-21T07:32:14;101482.56;;;21.36;53.52
85758;BME280;76202;52.626;4.746;2024-02-21T07:34:39;101478.91;;;21.31;53.69
85758;BME280;76202;52.626;4.746;2024-02-21T07:37:06;101472.66;;;21.07;53.12
85758;BME280;76202;52.626;4.746;2024-02-21T07:39:31;101460.13;;;20.94;54.30
85758;BME280;76202;52.626;4.746;2024-02-21T07:41:56;101472.09;;;20.82;55.34
85758;BME280;76202;52.626;4.746;2024-02-21T07:44:22;101459.78;;;20.79;55.35
85758;BME280;76202;52.626;4.746;2024-02-21T07:46:47;101472.44;;;20.74;55.75
85758;BME280;76202;52.626;4.746;2024-02-21T07:49:13;101460.63;;;20.80;55.54
85758;BME280;76202;52.626;4.746;2024-02-21T07:51:38;101471.63;;;20.73;54.95
85758;BME280;76202;52.626;4.746;2024-02-21T07:54:03;101473.19;;;20.69;55.78
85758;BME280;76202;52.626;4.746;2024-02-21T07:56:29;101481.44;;;20.63;55.85
85758;BME280;76202;52.626;4.746;2024-02-21T07:58:55;101464.09;;;20.64;56.23
85758;BME280;76202;52.626;4.746;2024-02-21T08:01:20;101476.22;;;20.61;56.40
85758;BME280;76202;52.626;4.746;2024-02-21T08:03:46;101465.59;;;20.59;56.42
85758;BME280;76202;52.626;4.746;2024-02-21T08:06:12;101453.22;;;20.64;56.28
85758;BME280;76202;52.626;4.746;2024-02-21T08:08:38;101441.25;;;20.53;56.19
85758;BME280;76202;52.626;4.746;2024-02-21T08:11:03;101444.81;;;20.53;56.38
85758;BME280;76202;52.626;4.746;2024-02-21T08:13:29;101452.59;;;20.62;56.53
85758;BME280;76202;52.626;4.746;2024-02-21T08:15:54;101444.69;;;20.60;56.64
85758;BME280;76202;52.626;4.746;2024-02-21T08:18:20;101435.59;;;20.66;56.43
85758;BME280;76202;52.626;4.746;2024-02-21T08:20:45;101436.16;;;20.68;56.36
85758;BME280;76202;52.626;4.746;2024-02-21T08:23:11;101434.50;;;20.67;56.73
85758;BME280;76202;52.626;4.746;2024-02-21T08:25:36;101427.28;;;20.73;56.49
85758;BME280;76202;52.626;4.746;2024-02-21T08:28:01;101425.28;;;20.68;56.41
85758;BME280;76202;52.626;4.746;2024-02-21T08:30:27;101415.94;;;20.64;56.51
85758;BME280;76202;52.626;4.746;2024-02-21T08:32:53;101415.50;;;20.55;56.86
85758;BME280;76202;52.626;4.746;2024-02-21T08:35:21;101417.38;;;20.43;57.19
85758;BME280;76202;52.626;4.746;2024-02-21T08:37:47;101413.25;;;20.41;56.91
85758;BME280;76202;52.626;4.746;2024-02-21T08:40:13;101411.84;;;20.38;56.95
85758;BME280;76202;52.626;4.746;2024-02-21T08:42:43;101416.44;;;20.38;57.05
85758;BME280;76202;52.626;4.746;2024-02-21T08:45:09;101410.78;;;20.39;57.23
85758;BME280;76202;52.626;4.746;2024-02-21T08:47:34;101415.75;;;20.42;57.34
85758;BME280;76202;52.626;4.746;2024-02-21T08:50:01;101411.94;;;20.43;56.86
85758;BME280;76202;52.626;4.746;2024-02-21T08:52:26;101400.03;;;20.44;56.64
85758;BME280;76202;52.626;4.746;2024-02-21T08:54:52;101398.50;;;20.37;57.36
85758;BME280;76202;52.626;4.746;2024-02-21T08:57:19;101401.34;;;20.30;57.32
85758;BME280;76202;52.626;4.746;2024-02-21T08:59:44;101389.72;;;20.23;57.63
85758;BME280;76202;52.626;4.746;2024-02-21T09:02:10;101395.63;;;20.20;57.39
85758;BME280;76202;52.626;4.746;2024-02-21T09:04:35;101396.69;;;20.19;57.97
85758;BME280;76202;52.626;4.746;2024-02-21T09:07:01;101372.25;;;20.19;57.64
85758;BME280;76202;52.626;4.746;2024-02-21T09:09:26;101376.84;;;20.19;57.50
85758;BME280;76202;52.626;4.746;2024-02-21T09:11:53;101367.75;;;20.25;57.40
85758;BME280;76202;52.626;4.746;2024-02-21T09:14:19;101362.34;;;20.25;57.72
85758;BME280;76202;52.626;4.746;2024-02-21T09:16:44;101353.25;;;20.19;57.78
85758;BME280;76202;52.626;4.746;2024-02-21T09:19:10;101346.38;;;20.17;57.74
85758;BME280;76202;52.626;4.746;2024-02-21T09:21:39;101346.25;;;20.12;58.11
85758;BME280;76202;52.626;4.746;2024-02-21T09:24:05;101348.16;;;20.11;58.05
85758;BME280;76202;52.626;4.746;2024-02-21T09:26:31;101331.00;;;20.11;57.94
85758;BME280;76202;52.626;4.746;2024-02-21T09:28:57;101335.66;;;20.10;57.70
85758;BME280;76202;52.626;4.746;2024-02-21T09:31:22;101328.66;;;20.14;57.76
85758;BME280;76202;52.626;4.746;2024-02-21T09:33:47;101320.88;;;20.18;57.33
85758;BME280;76202;52.626;4.746;2024-02-21T09:36:13;101312.50;;;20.19;57.59
85758;BME280;76202;52.626;4.746;2024-02-21T09:38:40;101298.66;;;20.21;57.76
85758;BME280;76202;52.626;4.746;2024-02-21T09:43:39;101285.09;;;20.21;57.25
85758;BME280;76202;52.626;4.746;2024-02-21T09:46:05;101286.63;;;20.17;57.55
85758;BME280;76202;52.626;4.746;2024-02-21T09:51:09;101282.59;;;20.08;57.63
85758;BME280;76202;52.626;4.746;2024-02-21T09:53:37;101277.44;;;20.06;58.44
85758;BME280;76202;52.626;4.746;2024-02-21T09:56:05;101261.97;;;20.07;58.23
85758;BME280;76202;52.626;4.746;2024-02-21T09:58:32;101263.72;;;20.13;57.69
85758;BME280;76202;52.626;4.746;2024-02-21T10:00:58;101260.19;;;20.12;58.01
85758;BME280;76202;52.626;4.746;2024-02-21T10:03:25;101261.59;;;20.15;57.88
85758;BME280;76202;52.626;4.746;2024-02-21T10:05:50;101257.69;;;20.11;58.06
85758;BME280;76202;52.626;4.746;2024-02-21T10:08:16;101255.22;;;20.09;57.96
85758;BME280;76202;52.626;4.746;2024-02-21T10:10:46;101241.88;;;20.08;58.33
85758;BME280;76202;52.626;4.746;2024-02-21T10:13:28;101230.31;;;20.12;58.23
85758;BME280;76202;52.626;4.746;2024-02-21T10:16:05;101230.88;;;20.14;58.83
85758;BME280;76202;52.626;4.746;2024-02-21T10:18:31;101229.09;;;20.20;58.49
85758;BME280;76202;52.626;4.746;2024-02-21T10:21:03;101227.22;;;20.20;58.53
85758;BME280;76202;52.626;4.746;2024-02-21T10:23:29;101233.00;;;20.24;58.15
85758;BME280;76202;52.626;4.746;2024-02-21T10:26:06;101213.88;;;20.19;58.58
85758;BME280;76202;52.626;4.746;2024-02-21T10:28:32;101209.75;;;20.16;58.82
85758;BME280;76202;52.626;4.746;2024-02-21T10:30:57;101205.63;;;20.14;58.75
85758;BME280;76202;52.626;4.746;2024-02-21T10:33:24;101204.38;;;20.04;59.16
85758;BME280;76202;52.626;4.746;2024-02-21T10:35:50;101197.00;;;20.05;59.03
85758;BME280;76202;52.626;4.746;2024-02-21T10:38:16;101196.44;;;20.03;59.46
85758;BME280;76202;52.626;4.746;2024-02-21T10:40:42;101198.22;;;19.97;59.51
85758;BME280;76202;52.626;4.746;2024-02-21T10:43:12;101191.38;;;19.95;59.46
85758;BME280;76202;52.626;4.746;2024-02-21T10:45:41;101191.03;;;19.91;59.23
85758;BME280;76202;52.626;4.746;2024-02-21T10:48:14;101185.59;;;19.91;59.84
85758;BME280;76202;52.626;4.746;2024-02-21T10:51:03;101174.25;;;19.94;58.89
85758;BME280;76202;52.626;4.746;2024-02-21T10:53:41;101169.63;;;20.07;59.19
85758;BME280;76202;52.626;4.746;2024-02-21T10:56:33;101155.94;;;20.13;58.70
85758;BME280;76202;52.626;4.746;2024-02-21T10:59:03;101152.00;;;20.21;58.54
85758;BME280;76202;52.626;4.746;2024-02-21T11:01:29;101156.59;;;20.20;58.36
85758;BME280;76202;52.626;4.746;2024-02-21T11:03:59;101144.09;;;20.19;58.84
85758;BME280;76202;52.626;4.746;2024-02-21T11:06:26;101138.31;;;20.16;59.27
85758;BME280;76202;52.626;4.746;2024-02-21T11:09:01;101129.25;;;20.10;59.32
85758;BME280;76202;52.626;4.746;2024-02-21T11:11:28;101130.53;;;20.08;59.44
85758;BME280;76202;52.626;4.746;2024-02-21T11:14:25;101139.28;;;20.10;59.39
85758;BME280;76202;52.626;4.746;2024-02-21T11:16:49;101141.41;;;20.08;59.29
85758;BME280;76202;52.626;4.746;2024-02-21T11:19:30;101117.06;;;20.13;59.24
85758;BME280;76202;52.626;4.746;2024-02-21T11:21:57;101115.06;;;20.08;59.59
85758;BME280;76202;52.626;4.746;2024-02-21T11:24:30;101104.13;;;20.03;59.59
85758;BME280;76202;52.626;4.746;2024-02-21T11:26:56;101109.53;;;20.03;59.63
85758;BME280;76202;52.626;4.746;2024-02-21T11:29:24;101110.59;;;20.02;59.94
85758;BME280;76202;52.626;4.746;2024-02-21T11:31:51;101104.38;;;20.01;60.51
85758;BME280;76202;52.626;4.746;2024-02-21T11:34:20;101099.16;;;20.00;60.74
85758;BME280;76202;52.626;4.746;2024-02-21T11:36:52;101086.91;;;19.97;60.65
85758;BME280;76202;52.626;4.746;2024-02-21T11:39:24;101078.41;;;19.94;60.68
85758;BME280;76202;52.626;4.746;2024-02-21T11:42:07;101070.25;;;19.94;61.13
85758;BME280;76202;52.626;4.746;2024-02-21T11:44:34;101055.03;;;19.93;61.34
85758;BME280;76202;52.626;4.746;2024-02-21T11:47:00;101055.88;;;19.93;61.01
85758;BME280;76202;52.626;4.746;2024-02-21T11:49:29;101048.81;;;19.92;61.58
85758;BME280;76202;52.626;4.746;2024-02-21T11:52:02;101033.00;;;19.89;61.10
85758;BME280;76202;52.626;4.746;2024-02-21T11:54:32;101037.81;;;19.87;61.77
85758;BME280;76202;52.626;4.746;2024-02-21T11:56:59;101013.88;;;19.84;60.71
85758;BME280;76202;52.626;4.746;2024-02-21T11:59:25;101016.03;;;19.82;61.01
85758;BME280;76202;52.626;4.746;2024-02-21T12:01:52;101002.94;;;19.79;61.28
85758;BME280;76202;52.626;4.746;2024-02-21T12:04:18;100995.97;;;19.83;61.66
85758;BME280;76202;52.626;4.746;2024-02-21T12:06:49;100985.69;;;19.85;61.21
85758;BME280;76202;52.626;4.746;2024-02-21T12:09:15;100986.59;;;19.91;61.22
85758;BME280;76202;52.626;4.746;2024-02-21T12:11:41;100977.72;;;19.95;61.12
85758;BME280;76202;52.626;4.746;2024-02-21T12:14:07;100972.03;;;19.97;61.00
85758;BME280;76202;52.626;4.746;2024-02-21T12:16:34;100956.59;;;19.97;61.48
85758;BME280;76202;52.626;4.746;2024-02-21T12:19:00;100950.59;;;19.95;61.11
85758;BME280;76202;52.626;4.746;2024-02-21T12:21:26;100955.34;;;19.88;61.79
85758;BME280;76202;52.626;4.746;2024-02-21T12:24:21;100952.03;;;19.86;61.64
85758;BME280;76202;52.626;4.746;2024-02-21T12:26:47;100940.28;;;19.81;61.58
85758;BME280;76202;52.626;4.746;2024-02-21T12:29:21;100931.31;;;19.80;61.65
85758;BME280;76202;52.626;4.746;2024-02-21T12:31:47;100912.53;;;19.79;61.85
85758;BME280;76202;52.626;4.746;2024-02-21T12:34:12;100899.78;;;19.79;61.57
85758;BME280;76202;52.626;4.746;2024-02-21T12:36:42;100893.06;;;19.82;61.99
85758;BME280;76202;52.626;4.746;2024-02-21T12:39:08;100893.72;;;19.89;61.99
85758;BME280;76202;52.626;4.746;2024-02-21T12:41:35;100873.97;;;19.93;61.68
85758;BME280;76202;52.626;4.746;2024-02-21T12:44:03;100860.50;;;19.98;61.87
85758;BME280;76202;52.626;4.746;2024-02-21T12:46:29;100860.00;;;20.01;61.45
85758;BME280;76202;52.626;4.746;2024-02-21T12:48:58;100857.03;;;20.03;61.40
85758;BME280;76202;52.626;4.746;2024-02-21T12:51:23;100849.03;;;19.96;61.71